Time;durP1;ratioP1;P1;durP2;ratioP2;P2;SDS_P1;SDS_P2;PMS_P1;PMS_P2;Temp;Humidity;BMP_temperature;BMP_pressure;BME280_temperature;BME280_humidity;BME280_pressure;Samples;Min_cycle;Max_cycle;Signal;HPM_P1;HPM_P2
2022/07/29 00:00:45;;;;;;;;;;;18.40;95.20;;;;;;5053240;28;19920;-68
2022/07/29 00:03:11;;;;;;;;;;;18.40;95.10;;;;;;5053198;28;20330;-66
2022/07/29 00:05:38;;;;;;;;;;;18.40;95.20;;;;;;5053214;28;19917;-66
2022/07/29 00:08:04;;;;;;;;;;;18.40;95.70;;;;;;5053155;28;19957;-65
2022/07/29 00:10:29;;;;;;;;;;;18.30;95.70;;;;;;5053105;28;20004;-66
2022/07/29 00:12:55;;;;;;;;;;;18.30;96.00;;;;;;5053302;28;20006;-67
2022/07/29 00:15:20;;;;;;;;;;;18.30;96.20;;;;;;5053117;28;19975;-65
2022/07/29 00:17:46;;;;;;;;;;;18.30;96.50;;;;;;5053094;28;20383;-65
2022/07/29 00:20:11;;;;;;;;;;;18.20;96.60;;;;;;5053026;28;19909;-65
2022/07/29 00:22:37;;;;;;;;;;;18.20;96.80;;;;;;5053258;28;20355;-65
2022/07/29 00:25:03;;;;;;;;;;;18.20;96.60;;;;;;5053272;28;20282;-65
2022/07/29 00:27:28;;;;;;;;;;;18.20;97.30;;;;;;5052958;28;19995;-65
2022/07/29 00:29:54;;;;;;;;;;;18.10;97.30;;;;;;5052949;28;20322;-65
2022/07/29 00:32:19;;;;;;;;;;;18.10;97.60;;;;;;5052914;28;20043;-65
2022/07/29 00:37:30;;;;;;;;;;;18.10;97.60;;;;;;5052731;28;19954;-65
2022/07/29 00:39:56;;;;;;;;;;;18.10;97.60;;;;;;5053254;28;19909;-65
2022/07/29 00:42:21;;;;;;;;;;;18.10;97.90;;;;;;5056784;28;20345;-65
2022/07/29 00:44:47;;;;;;;;;;;18.00;98.50;;;;;;5056456;28;19962;-65
2022/07/29 00:47:12;;;;;;;;;;;18.00;98.80;;;;;;5038661;28;19952;-65
2022/07/29 00:49:38;;;;;;;;;;;18.00;99.10;;;;;;5056384;28;19909;-65
2022/07/29 00:52:04;;;;;;;;;;;17.90;99.20;;;;;;5056618;28;19916;-65
2022/07/29 00:54:30;;;;;;;;;;;17.90;99.00;;;;;;5056455;28;19912;-65
2022/07/29 00:56:57;;;;;;;;;;;17.90;99.20;;;;;;5056199;28;19909;-65
2022/07/29 00:59:23;;;;;;;;;;;17.90;99.20;;;;;;5056198;28;20015;-65
2022/07/29 01:01:48;;;;;;;;;;;17.90;99.60;;;;;;5056180;28;19952;-65
2022/07/29 01:04:14;;;;;;;;;;;18.00;99.50;;;;;;5056131;28;20031;-65
2022/07/29 01:06:39;;;;;;;;;;;17.90;99.70;;;;;;5056357;28;19909;-65
2022/07/29 01:09:05;;;;;;;;;;;17.90;99.60;;;;;;5056296;28;20007;-65
2022/07/29 01:11:31;;;;;;;;;;;17.90;99.90;;;;;;5055951;28;19915;-65
2022/07/29 01:13:56;;;;;;;;;;;17.90;99.90;;;;;;5038119;28;19913;-65
2022/07/29 01:16:27;;;;;;;;;;;17.90;99.80;;;;;;5055928;28;19909;-65
2022/07/29 01:18:58;;;;;;;;;;;17.90;99.90;;;;;;5056114;28;19962;-65
2022/07/29 01:21:34;;;;;;;;;;;17.90;99.90;;;;;;5055848;28;19940;-65
2022/07/29 01:24:20;;;;;;;;;;;17.80;99.90;;;;;;5055973;28;19909;-65
2022/07/29 01:26:47;;;;;;;;;;;17.80;99.90;;;;;;5055493;28;19916;-65
2022/07/29 01:29:34;;;;;;;;;;;17.80;99.90;;;;;;5038108;28;19913;-65
2022/07/29 01:32:18;;;;;;;;;;;17.80;99.90;;;;;;5055528;28;19913;-66
2022/07/29 01:35:02;;;;;;;;;;;17.80;99.90;;;;;;5055435;28;19921;-65
2022/07/29 01:37:32;;;;;;;;;;;17.70;99.90;;;;;;5055770;28;19948;-65
2022/07/29 01:39:59;;;;;;;;;;;17.80;99.90;;;;;;5055688;28;20410;-65
2022/07/29 01:42:35;;;;;;;;;;;17.70;99.90;;;;;;5055677;28;19913;-65
2022/07/29 01:45:05;;;;;;;;;;;17.70;99.90;;;;;;5037911;28;20287;-65
2022/07/29 01:47:34;;;;;;;;;;;17.80;99.90;;;;;;5055355;28;19909;-65
2022/07/29 01:50:00;;;;;;;;;;;17.80;99.90;;;;;;5055504;28;19915;-65
2022/07/29 01:52:46;;;;;;;;;;;17.80;99.90;;;;;;5055406;28;19909;-65
2022/07/29 01:55:13;;;;;;;;;;;17.80;99.90;;;;;;5055029;28;19920;-65
2022/07/29 01:57:40;;;;;;;;;;;17.80;99.90;;;;;;5055351;28;20383;-65
2022/07/29 02:00:06;;;;;;;;;;;17.80;99.90;;;;;;5055304;28;20360;-65
2022/07/29 02:02:32;;;;;;;;;;;17.90;99.90;;;;;;5055282;28;19909;-66
2022/07/29 02:04:59;;;;;;;;;;;17.90;99.90;;;;;;5055035;28;19915;-66
2022/07/29 02:07:27;;;;;;;;;;;17.90;99.90;;;;;;5055207;28;19920;-65
2022/07/29 02:09:53;;;;;;;;;;;17.90;99.90;;;;;;5055115;28;19909;-65
2022/07/29 02:12:19;;;;;;;;;;;17.80;99.90;;;;;;5054736;28;19909;-66
2022/07/29 02:14:47;;;;;;;;;;;17.80;99.90;;;;;;5054638;28;19916;-65
2022/07/29 02:17:13;;;;;;;;;;;17.80;99.90;;;;;;5054987;28;19909;-66
2022/07/29 02:19:39;;;;;;;;;;;17.80;99.90;;;;;;5054675;28;19909;-65
2022/07/29 02:22:05;;;;;;;;;;;17.80;99.90;;;;;;5054578;28;20394;-65
2022/07/29 02:24:31;;;;;;;;;;;17.80;99.90;;;;;;5054544;28;19909;-65
2022/07/29 02:26:57;;;;;;;;;;;17.80;99.90;;;;;;5054765;28;19909;-65
2022/07/29 02:29:24;;;;;;;;;;;17.80;99.90;;;;;;5054567;28;19916;-65
2022/07/29 02:31:51;;;;;;;;;;;17.80;99.90;;;;;;5054427;28;19916;-65
2022/07/29 02:34:17;;;;;;;;;;;17.80;99.90;;;;;;5054179;28;19921;-65
2022/07/29 02:36:43;;;;;;;;;;;17.80;99.90;;;;;;5036854;28;20008;-65
2022/07/29 02:39:09;;;;;;;;;;;17.70;99.90;;;;;;5036494;28;19909;-65
2022/07/29 02:41:44;;;;;;;;;;;17.80;99.90;;;;;;5054503;28;20393;-65
2022/07/29 02:44:11;;;;;;;;;;;17.70;99.90;;;;;;5054162;28;19909;-65
2022/07/29 02:46:41;;;;;;;;;;;17.80;99.90;;;;;;5036476;28;19916;-65
2022/07/29 02:49:10;;;;;;;;;;;17.70;99.90;;;;;;5054105;28;20019;-65
2022/07/29 02:51:55;;;;;;;;;;;17.70;99.90;;;;;;5054068;28;19913;-65
2022/07/29 02:54:25;;;;;;;;;;;17.70;99.90;;;;;;5053892;28;19963;-65
2022/07/29 02:56:54;;;;;;;;;;;17.60;99.90;;;;;;5054300;28;19916;-65
2022/07/29 02:59:21;;;;;;;;;;;17.60;99.90;;;;;;5053933;28;19967;-65
2022/07/29 03:01:47;;;;;;;;;;;17.50;99.90;;;;;;5054220;28;19909;-65
2022/07/29 03:04:14;;;;;;;;;;;17.60;99.90;;;;;;5053511;28;19915;-65
2022/07/29 03:06:40;;;;;;;;;;;17.50;99.90;;;;;;5054081;28;20367;-65
2022/07/29 03:09:06;;;;;;;;;;;17.60;99.90;;;;;;5053855;28;19913;-65
2022/07/29 03:11:32;;;;;;;;;;;17.50;99.90;;;;;;5054052;28;19909;-65
2022/07/29 03:13:58;;;;;;;;;;;17.60;99.90;;;;;;5053951;28;19992;-65
2022/07/29 03:16:24;;;;;;;;;;;17.60;99.90;;;;;;5053767;28;19913;-65
2022/07/29 03:18:50;;;;;;;;;;;17.60;99.90;;;;;;5053646;28;20287;-65
2022/07/29 03:21:16;;;;;;;;;;;17.60;99.90;;;;;;5053614;28;19909;-65
2022/07/29 03:23:45;;;;;;;;;;;17.60;99.90;;;;;;5053595;28;19916;-65
2022/07/29 03:26:11;;;;;;;;;;;17.60;99.90;;;;;;5053607;28;20326;-65
2022/07/29 03:28:37;;;;;;;;;;;17.70;99.90;;;;;;5053809;28;19913;-65
2022/07/29 03:31:02;;;;;;;;;;;17.70;99.90;;;;;;5053784;28;20051;-65
2022/07/29 03:33:30;;;;;;;;;;;17.70;99.90;;;;;;5053231;28;20410;-65
2022/07/29 03:35:56;;;;;;;;;;;17.70;99.90;;;;;;5053740;28;19912;-66
2022/07/29 03:38:23;;;;;;;;;;;17.70;99.90;;;;;;5053465;28;20274;-65
2022/07/29 03:40:52;;;;;;;;;;;17.80;99.90;;;;;;5053421;28;20390;-65
2022/07/29 03:43:18;;;;;;;;;;;17.80;99.90;;;;;;5053398;28;20004;-65
2022/07/29 03:45:45;;;;;;;;;;;17.90;99.90;;;;;;5053629;28;19956;-65
2022/07/29 03:48:13;;;;;;;;;;;17.90;99.90;;;;;;5035509;28;20296;-65
2022/07/29 03:50:39;;;;;;;;;;;17.90;99.90;;;;;;5053601;28;19909;-65
2022/07/29 03:53:05;;;;;;;;;;;17.90;99.90;;;;;;5053520;28;19920;-66
2022/07/29 03:55:33;;;;;;;;;;;17.90;99.90;;;;;;5053292;28;19909;-65
2022/07/29 03:58:00;;;;;;;;;;;17.90;99.90;;;;;;5035505;28;19963;-65
2022/07/29 04:00:26;;;;;;;;;;;17.90;99.90;;;;;;5053530;28;19935;-66
2022/07/29 04:02:52;;;;;;;;;;;18.00;99.90;;;;;;5053474;28;19958;-65
2022/07/29 04:05:18;;;;;;;;;;;18.00;99.90;;;;;;5053202;28;20360;-65
2022/07/29 04:07:44;;;;;;;;;;;18.00;99.90;;;;;;5053175;28;19909;-66
2022/07/29 04:10:10;;;;;;;;;;;18.00;99.90;;;;;;5035481;28;19909;-65
2022/07/29 04:12:35;;;;;;;;;;;18.00;99.90;;;;;;5053339;28;19924;-65
2022/07/29 04:15:01;;;;;;;;;;;18.00;99.90;;;;;;5053409;28;20375;-65
2022/07/29 04:17:27;;;;;;;;;;;18.00;99.90;;;;;;5057242;28;20283;-65
2022/07/29 04:19:52;;;;;;;;;;;18.10;99.80;;;;;;5056957;28;19908;-65
2022/07/29 04:22:18;;;;;;;;;;;18.10;99.80;;;;;;5057172;28;19909;-65
2022/07/29 04:24:43;;;;;;;;;;;18.20;99.50;;;;;;5057134;28;20359;-65
2022/07/29 04:27:09;;;;;;;;;;;18.30;99.20;;;;;;5056821;28;19909;-65
2022/07/29 04:29:34;;;;;;;;;;;18.30;99.20;;;;;;5056806;28;20387;-65
2022/07/29 04:32:00;;;;;;;;;;;18.40;99.40;;;;;;5056724;28;20355;-65
2022/07/29 04:34:25;;;;;;;;;;;18.30;99.40;;;;;;5056381;28;19921;-65
2022/07/29 04:36:50;;;;;;;;;;;18.40;99.00;;;;;;5038808;28;19908;-65
2022/07/29 04:39:17;;;;;;;;;;;18.40;98.50;;;;;;5056601;28;19909;-65
2022/07/29 04:41:43;;;;;;;;;;;18.40;99.50;;;;;;5056892;28;20473;-66
2022/07/29 04:44:09;;;;;;;;;;;18.40;98.80;;;;;;5056793;28;19943;-65
2022/07/29 04:46:34;;;;;;;;;;;18.40;99.40;;;;;;5056712;28;19913;-65
2022/07/29 04:49:00;;;;;;;;;;;18.40;99.00;;;;;;5056718;28;20362;-65
2022/07/29 04:51:25;;;;;;;;;;;18.40;99.10;;;;;;5056655;28;19948;-66
2022/07/29 04:53:51;;;;;;;;;;;18.40;99.60;;;;;;5056245;28;19920;-65
2022/07/29 04:56:16;;;;;;;;;;;18.40;99.30;;;;;;5056266;28;20003;-65
2022/07/29 04:58:42;;;;;;;;;;;18.50;99.20;;;;;;5056487;28;19908;-65
2022/07/29 05:01:07;;;;;;;;;;;18.40;99.30;;;;;;5056181;28;20385;-66
2022/07/29 05:03:33;;;;;;;;;;;18.50;99.40;;;;;;5056391;28;19958;-65
2022/07/29 05:05:58;;;;;;;;;;;18.60;99.60;;;;;;5056379;28;19909;-65
2022/07/29 05:08:24;;;;;;;;;;;18.60;99.20;;;;;;5056372;28;19956;-65
2022/07/29 05:10:49;;;;;;;;;;;18.80;99.70;;;;;;5056255;28;20260;-65
2022/07/29 05:13:15;;;;;;;;;;;18.90;99.10;;;;;;5056151;28;19917;-65
2022/07/29 05:15:41;;;;;;;;;;;19.00;98.10;;;;;;5056189;28;19954;-65
2022/07/29 05:18:06;;;;;;;;;;;19.20;98.70;;;;;;5056114;28;19998;-65
2022/07/29 05:20:33;;;;;;;;;;;19.20;99.40;;;;;;5055879;28;19909;-65
2022/07/29 05:22:59;;;;;;;;;;;19.30;99.90;;;;;;5056071;28;19908;-66
2022/07/29 05:25:25;;;;;;;;;;;19.30;99.20;;;;;;5038208;28;20008;-65
2022/07/29 05:27:51;;;;;;;;;;;19.40;99.00;;;;;;5055593;28;20395;-65
2022/07/29 05:30:17;;;;;;;;;;;19.40;98.70;;;;;;5037853;28;19991;-66
2022/07/29 05:32:42;;;;;;;;;;;19.40;98.30;;;;;;5055545;28;20405;-66
2022/07/29 05:35:08;;;;;;;;;;;19.40;98.50;;;;;;5055780;28;19908;-65
2022/07/29 05:37:33;;;;;;;;;;;19.40;98.90;;;;;;5055541;28;19916;-65
2022/07/29 05:39:59;;;;;;;;;;;19.40;99.90;;;;;;5055407;28;19916;-66
2022/07/29 05:42:25;;;;;;;;;;;19.30;99.90;;;;;;5055335;28;19915;-65
2022/07/29 05:44:51;;;;;;;;;;;19.10;99.90;;;;;;5055335;28;20260;-66
2022/07/29 05:47:16;;;;;;;;;;;18.80;99.90;;;;;;5037409;28;19916;-65
2022/07/29 05:49:42;;;;;;;;;;;18.70;99.90;;;;;;5055261;28;19999;-66
2022/07/29 05:52:08;;;;;;;;;;;18.60;99.90;;;;;;5055031;28;20020;-65
2022/07/29 05:54:34;;;;;;;;;;;18.70;99.90;;;;;;5037524;28;19913;-65
2022/07/29 05:56:59;;;;;;;;;;;18.90;99.90;;;;;;5055079;28;19916;-65
2022/07/29 05:59:25;;;;;;;;;;;19.00;99.90;;;;;;5055007;28;20007;-65
2022/07/29 06:01:51;;;;;;;;;;;19.20;99.90;;;;;;5037159;28;20287;-65
2022/07/29 06:04:16;;;;;;;;;;;19.80;99.90;;;;;;5051713;28;19927;-65
2022/07/29 06:06:41;;;;;;;;;;;20.30;99.90;;;;;;5050951;28;19909;-65
2022/07/29 06:09:07;;;;;;;;;;;20.30;99.90;;;;;;5046058;28;19908;-65
2022/07/29 06:11:33;;;;;;;;;;;20.10;99.90;;;;;;5047983;28;20280;-65
2022/07/29 06:13:58;;;;;;;;;;;20.10;99.90;;;;;;5044275;28;19963;-65
2022/07/29 06:16:24;;;;;;;;;;;20.20;99.90;;;;;;5037977;28;19909;-65
2022/07/29 06:18:49;;;;;;;;;;;20.90;99.00;;;;;;5049586;28;19963;-66
2022/07/29 06:21:15;;;;;;;;;;;21.20;97.80;;;;;;5060391;28;19917;-65
2022/07/29 06:23:40;;;;;;;;;;;21.10;97.90;;;;;;5074754;28;19916;-65
2022/07/29 06:26:06;;;;;;;;;;;20.80;98.70;;;;;;5056522;28;19908;-66
2022/07/29 06:28:32;;;;;;;;;;;20.30;99.70;;;;;;5053743;28;20324;-65
2022/07/29 06:30:58;;;;;;;;;;;20.10;99.90;;;;;;5048544;28;19909;-65
2022/07/29 06:33:23;;;;;;;;;;;20.10;99.90;;;;;;5051226;28;20424;-65
2022/07/29 06:35:49;;;;;;;;;;;20.10;99.90;;;;;;5062422;28;19913;-66
2022/07/29 06:38:14;;;;;;;;;;;20.00;99.90;;;;;;5060884;28;19920;-64
2022/07/29 06:41:15;;;;;;;;;;;19.90;99.90;;;;;;5064099;28;19908;-65
2022/07/29 06:43:31;;;;;;;;;;;20.10;99.90;;;;;;5061945;28;19908;-64
2022/07/29 06:45:58;;;;;;;;;;;20.20;99.90;;;;;;5054380;28;19916;-64
2022/07/29 06:48:23;;;;;;;;;;;20.20;99.90;;;;;;5054027;28;19915;-64
2022/07/29 06:50:49;;;;;;;;;;;20.20;99.60;;;;;;5056061;28;19912;-64
2022/07/29 06:53:14;;;;;;;;;;;20.30;99.90;;;;;;5053953;28;20298;-64
2022/07/29 06:55:40;;;;;;;;;;;20.30;99.90;;;;;;5054220;28;19915;-64
2022/07/29 06:58:06;;;;;;;;;;;20.40;99.70;;;;;;5054159;28;20283;-64
2022/07/29 07:00:32;;;;;;;;;;;20.30;99.40;;;;;;5054169;28;19909;-64
2022/07/29 07:02:57;;;;;;;;;;;20.70;99.40;;;;;;5036008;28;20442;-65
2022/07/29 07:05:23;;;;;;;;;;;20.80;99.00;;;;;;5053816;28;19952;-65
2022/07/29 07:07:48;;;;;;;;;;;21.10;97.50;;;;;;5065720;28;20367;-65
2022/07/29 07:10:14;;;;;;;;;;;21.30;98.10;;;;;;5054063;28;19944;-66
2022/07/29 07:12:40;;;;;;;;;;;21.60;98.30;;;;;;5053862;28;19924;-65
2022/07/29 07:15:05;;;;;;;;;;;21.90;97.10;;;;;;5036254;28;19912;-67
2022/07/29 07:17:31;;;;;;;;;;;22.00;96.40;;;;;;5073770;28;19908;-66
2022/07/29 07:19:56;;;;;;;;;;;22.10;95.90;;;;;;5073580;28;19912;-65
2022/07/29 07:22:22;;;;;;;;;;;22.30;96.90;;;;;;5073658;28;19909;-65
2022/07/29 07:24:47;;;;;;;;;;;22.40;95.00;;;;;;5068938;28;19916;-65
2022/07/29 07:27:13;;;;;;;;;;;22.80;94.30;;;;;;5057234;28;19913;-65
2022/07/29 07:29:40;;;;;;;;;;;22.80;95.20;;;;;;5056031;28;19912;-65
2022/07/29 07:32:06;;;;;;;;;;;23.50;92.50;;;;;;5072674;28;19913;-65
2022/07/29 07:34:32;;;;;;;;;;;24.70;91.10;;;;;;5073181;28;19920;-65
2022/07/29 07:36:57;;;;;;;;;;;25.10;89.00;;;;;;5070225;28;19928;-65
2022/07/29 07:39:23;;;;;;;;;;;25.20;87.50;;;;;;5068701;28;20307;-65
2022/07/29 07:41:48;;;;;;;;;;;25.00;87.10;;;;;;5069599;28;19921;-66
2022/07/29 07:44:13;;;;;;;;;;;25.20;88.30;;;;;;5067227;28;20291;-67
2022/07/29 07:46:39;;;;;;;;;;;24.40;87.80;;;;;;5073049;28;19912;-65
2022/07/29 07:49:04;;;;;;;;;;;24.00;90.40;;;;;;5068966;28;19927;-65
2022/07/29 07:51:30;;;;;;;;;;;23.60;90.50;;;;;;5077232;28;20430;-65
2022/07/29 07:53:55;;;;;;;;;;;23.20;90.50;;;;;;5097269;28;20259;-65
2022/07/29 07:56:21;;;;;;;;;;;23.20;91.40;;;;;;5080934;28;19909;-65
2022/07/29 07:58:46;;;;;;;;;;;23.40;91.70;;;;;;5077209;28;19923;-66
2022/07/29 08:01:12;;;;;;;;;;;23.70;90.80;;;;;;5077444;28;19908;-66
2022/07/29 08:03:38;;;;;;;;;;;25.00;88.30;;;;;;5077405;28;20256;-65
2022/07/29 08:06:04;;;;;;;;;;;26.90;82.70;;;;;;5077352;28;19931;-65
2022/07/29 08:08:29;;;;;;;;;;;28.70;78.50;;;;;;5068262;28;19916;-66
2022/07/29 08:10:55;;;;;;;;;;;30.30;70.70;;;;;;5074108;28;19952;-66
2022/07/29 08:13:22;;;;;;;;;;;29.60;69.70;;;;;;5066380;28;19931;-66
2022/07/29 08:15:56;;;;;;;;;;;29.20;69.10;;;;;;5075871;28;19908;-66
2022/07/29 08:18:21;;;;;;;;;;;29.10;69.10;;;;;;5076981;28;20377;-65
2022/07/29 08:20:47;;;;;;;;;;;27.90;70.60;;;;;;5076918;28;20003;-65
2022/07/29 08:23:12;;;;;;;;;;;28.20;71.90;;;;;;5066842;28;19936;-67
2022/07/29 08:25:38;;;;;;;;;;;28.80;69.30;;;;;;5079609;28;19992;-66
2022/07/29 08:28:04;;;;;;;;;;;29.60;66.10;;;;;;5070583;28;19908;-66
2022/07/29 08:30:30;;;;;;;;;;;30.30;66.00;;;;;;5076761;28;19969;-66
2022/07/29 08:32:55;;;;;;;;;;;30.40;64.20;;;;;;5083940;28;19924;-66
2022/07/29 08:35:21;;;;;;;;;;;30.50;63.10;;;;;;5072601;28;20008;-65
2022/07/29 08:37:47;;;;;;;;;;;29.80;64.30;;;;;;5074138;28;19915;-66
2022/07/29 08:40:14;;;;;;;;;;;30.10;65.10;;;;;;5076292;28;20007;-66
2022/07/29 08:42:39;;;;;;;;;;;30.20;62.80;;;;;;5075316;28;19912;-66
2022/07/29 08:45:05;;;;;;;;;;;29.70;63.20;;;;;;5072903;28;19961;-66
2022/07/29 08:47:31;;;;;;;;;;;29.00;64.70;;;;;;5046794;28;20012;-65
2022/07/29 08:49:56;;;;;;;;;;;28.50;65.50;;;;;;5066706;28;20317;-66
2022/07/29 08:52:24;;;;;;;;;;;27.40;69.30;;;;;;5062068;28;19920;-65
2022/07/29 08:54:51;;;;;;;;;;;27.40;69.40;;;;;;5056605;28;19913;-65
2022/07/29 08:57:18;;;;;;;;;;;28.10;67.70;;;;;;5056183;28;20007;-65
2022/07/29 08:59:45;;;;;;;;;;;29.60;67.50;;;;;;5056155;28;19908;-66
2022/07/29 09:02:15;;;;;;;;;;;29.90;62.80;;;;;;5065623;28;19912;-66
2022/07/29 09:04:41;;;;;;;;;;;30.70;63.30;;;;;;5065203;28;19912;-65
2022/07/29 09:07:07;;;;;;;;;;;31.60;61.00;;;;;;5062676;28;19916;-65
2022/07/29 09:09:33;;;;;;;;;;;31.20;59.40;;;;;;5064286;28;20333;-67
2022/07/29 09:12:00;;;;;;;;;;;31.80;58.90;;;;;;5070945;28;20005;-66
2022/07/29 09:14:26;;;;;;;;;;;32.70;57.90;;;;;;5068699;28;19926;-66
2022/07/29 09:16:53;;;;;;;;;;;32.70;56.90;;;;;;5083740;28;19912;-66
2022/07/29 09:19:20;;;;;;;;;;;31.60;58.20;;;;;;5076892;28;19959;-65
2022/07/29 09:22:01;;;;;;;;;;;30.70;58.60;;;;;;5056628;28;20316;-66
2022/07/29 09:24:43;;;;;;;;;;;30.20;59.70;;;;;;5063534;28;19912;-66
2022/07/29 09:27:09;;;;;;;;;;;30.60;59.70;;;;;;5042638;28;20386;-66
2022/07/29 09:29:35;;;;;;;;;;;30.90;60.00;;;;;;5071840;28;19923;-65
2022/07/29 09:32:03;;;;;;;;;;;31.30;59.00;;;;;;5070815;28;19919;-65
2022/07/29 09:34:31;;;;;;;;;;;31.30;59.40;;;;;;5057335;28;19920;-65
2022/07/29 09:36:56;;;;;;;;;;;30.70;58.50;;;;;;5075758;28;19912;-65
2022/07/29 09:39:31;;;;;;;;;;;32.10;59.30;;;;;;5075612;28;19915;-65
2022/07/29 09:41:58;;;;;;;;;;;32.20;59.40;;;;;;5075649;28;19909;-65
2022/07/29 09:44:24;;;;;;;;;;;32.80;55.80;;;;;;5075492;28;19912;-66
2022/07/29 09:47:05;;;;;;;;;;;32.00;57.90;;;;;;5076246;28;19919;-65
2022/07/29 09:49:32;;;;;;;;;;;32.00;58.70;;;;;;5074544;28;19908;-65
2022/07/29 09:52:07;;;;;;;;;;;31.70;57.20;;;;;;5074633;28;20336;-65
2022/07/29 09:54:36;;;;;;;;;;;31.60;58.10;;;;;;5054598;28;19927;-64
2022/07/29 09:57:06;;;;;;;;;;;32.30;56.20;;;;;;5055856;28;19963;-65
2022/07/29 09:59:32;;;;;;;;;;;31.70;56.40;;;;;;5055036;28;19958;-67
2022/07/29 10:01:58;;;;;;;;;;;32.00;57.10;;;;;;5055997;28;20004;-67
2022/07/29 10:04:23;;;;;;;;;;;31.70;56.80;;;;;;5036972;28;19952;-66
2022/07/29 10:06:57;;;;;;;;;;;31.80;58.60;;;;;;5056053;28;19916;-65
2022/07/29 10:09:23;;;;;;;;;;;31.10;57.40;;;;;;5055057;28;19916;-64
2022/07/29 10:12:08;;;;;;;;;;;31.00;58.80;;;;;;5037184;28;19909;-64
2022/07/29 10:14:34;;;;;;;;;;;30.20;59.40;;;;;;5072513;28;19925;-64
2022/07/29 10:17:01;;;;;;;;;;;30.00;59.50;;;;;;5067810;28;20281;-64
2022/07/29 10:19:28;;;;;;;;;;;29.70;61.20;;;;;;5069083;28;19908;-64
2022/07/29 10:21:54;;;;;;;;;;;29.60;60.10;;;;;;5072770;28;19913;-64
2022/07/29 10:24:20;;;;;;;;;;;28.70;62.60;;;;;;5055790;28;19962;-64
2022/07/29 10:26:47;;;;;;;;;;;29.10;63.60;;;;;;5062836;28;20410;-64
2022/07/29 10:29:13;;;;;;;;;;;29.50;62.60;;;;;;5053759;28;19909;-64
2022/07/29 10:31:54;;;;;;;;;;;28.90;61.10;;;;;;5054160;28;19909;-64
2022/07/29 10:34:27;;;;;;;;;;;28.30;63.80;;;;;;5054169;28;20283;-65
2022/07/29 10:37:00;;;;;;;;;;;30.10;64.80;;;;;;5054623;28;20425;-64
2022/07/29 10:39:38;;;;;;;;;;;30.50;59.60;;;;;;5054547;28;19917;-64
2022/07/29 10:42:21;;;;;;;;;;;30.10;60.80;;;;;;5054470;28;19970;-64
2022/07/29 10:44:47;;;;;;;;;;;29.30;61.60;;;;;;5054440;28;20427;-65
2022/07/29 10:47:20;;;;;;;;;;;28.80;63.20;;;;;;5054044;28;19909;-64
2022/07/29 10:50:02;;;;;;;;;;;28.90;63.60;;;;;;5019759;28;19913;-64
2022/07/29 10:52:47;;;;;;;;;;;28.50;64.20;;;;;;5053984;28;19915;-67
2022/07/29 10:55:34;;;;;;;;;;;27.70;66.60;;;;;;5053941;28;19919;-65
2022/07/29 10:58:19;;;;;;;;;;;27.30;70.50;;;;;;5053952;28;20355;-65
2022/07/29 11:00:46;;;;;;;;;;;26.90;71.20;;;;;;5053892;28;19944;-65
2022/07/29 11:03:32;;;;;;;;;;;26.80;73.30;;;;;;5054180;28;19916;-67
2022/07/29 11:05:57;;;;;;;;;;;26.70;72.20;;;;;;5053839;28;19909;-65
2022/07/29 11:08:25;;;;;;;;;;;26.40;74.60;;;;;;5054109;28;19924;-66
2022/07/29 11:10:51;;;;;;;;;;;26.50;74.80;;;;;;5053931;28;20277;-66
2022/07/29 11:13:37;;;;;;;;;;;26.10;75.50;;;;;;5053810;28;20259;-66
2022/07/29 11:16:02;;;;;;;;;;;26.00;74.80;;;;;;5053664;28;19912;-66
2022/07/29 11:18:28;;;;;;;;;;;26.00;74.90;;;;;;5053941;28;19916;-66
2022/07/29 11:20:53;;;;;;;;;;;25.70;76.50;;;;;;5053716;28;20015;-66
2022/07/29 11:23:27;;;;;;;;;;;25.70;75.90;;;;;;5053539;28;19916;-66
2022/07/29 11:26:13;;;;;;;;;;;25.80;76.00;;;;;;5053562;28;19909;-66
2022/07/29 11:28:42;;;;;;;;;;;25.60;76.50;;;;;;5053445;28;20344;-65
2022/07/29 11:31:09;;;;;;;;;;;25.50;77.20;;;;;;5053444;28;19909;-65
2022/07/29 11:33:35;;;;;;;;;;;25.20;77.50;;;;;;5053291;28;19920;-65
2022/07/29 11:36:11;;;;;;;;;;;25.10;78.80;;;;;;5053089;28;21262;-65
2022/07/29 11:38:36;;;;;;;;;;;24.80;78.60;;;;;;5053549;28;19909;-66
2022/07/29 11:43:57;;;;;;;;;;;24.60;86.20;;;;;;5070994;28;20379;-67
2022/07/29 11:46:42;;;;;;;;;;;24.10;90.00;;;;;;5071091;28;19913;-67
2022/07/29 11:49:09;;;;;;;;;;;23.90;90.60;;;;;;5070876;28;19909;-67
2022/07/29 11:51:35;;;;;;;;;;;23.50;91.30;;;;;;5070853;28;19909;-67
2022/07/29 11:54:01;;;;;;;;;;;23.60;90.70;;;;;;5071077;28;20368;-67
2022/07/29 11:56:30;;;;;;;;;;;23.50;90.90;;;;;;5069471;28;19909;-67
2022/07/29 11:59:04;;;;;;;;;;;23.40;92.50;;;;;;5070706;28;19913;-67
2022/07/29 12:01:30;;;;;;;;;;;23.40;94.20;;;;;;5070520;28;19916;-67
2022/07/29 12:04:03;;;;;;;;;;;23.20;96.20;;;;;;5070817;28;19912;-66
2022/07/29 12:06:29;;;;;;;;;;;22.90;97.80;;;;;;5070682;28;20389;-66
2022/07/29 12:08:54;;;;;;;;;;;22.70;99.80;;;;;;5086125;28;19908;-67
2022/07/29 12:11:20;;;;;;;;;;;22.70;99.90;;;;;;5070763;28;19996;-66
2022/07/29 12:13:46;;;;;;;;;;;22.60;99.90;;;;;;5070423;28;19919;-67
2022/07/29 12:16:11;;;;;;;;;;;22.60;99.90;;;;;;5070367;28;19909;-66
2022/07/29 12:18:37;;;;;;;;;;;22.50;99.90;;;;;;5070495;28;20004;-66
2022/07/29 12:21:03;;;;;;;;;;;22.50;99.90;;;;;;5070550;28;19954;-66
2022/07/29 12:23:29;;;;;;;;;;;22.40;99.90;;;;;;5070352;28;19962;-66
2022/07/29 12:25:55;;;;;;;;;;;22.50;99.90;;;;;;5070510;28;19909;-66
2022/07/29 12:28:21;;;;;;;;;;;22.30;99.90;;;;;;5070101;28;19931;-66
2022/07/29 12:30:48;;;;;;;;;;;22.50;99.90;;;;;;5070287;28;19909;-66
2022/07/29 12:33:15;;;;;;;;;;;22.20;99.90;;;;;;5070235;28;20004;-65
2022/07/29 12:35:42;;;;;;;;;;;22.30;99.90;;;;;;5085712;28;20454;-66
2022/07/29 12:38:09;;;;;;;;;;;22.30;99.90;;;;;;5085522;28;20375;-66
2022/07/29 12:40:34;;;;;;;;;;;21.90;99.90;;;;;;5069873;28;19991;-67
2022/07/29 12:43:09;;;;;;;;;;;22.10;99.90;;;;;;5082632;28;19920;-66
2022/07/29 12:45:36;;;;;;;;;;;21.90;99.90;;;;;;5089998;28;20371;-67
2022/07/29 12:48:01;;;;;;;;;;;22.20;99.90;;;;;;5089801;28;19915;-65
2022/07/29 12:50:27;;;;;;;;;;;22.20;99.90;;;;;;5089748;28;19909;-65
2022/07/29 12:52:52;;;;;;;;;;;22.30;99.90;;;;;;5090034;28;19916;-65
2022/07/29 12:55:38;;;;;;;;;;;22.30;99.90;;;;;;5076414;28;19912;-66
2022/07/29 12:58:03;;;;;;;;;;;22.30;99.90;;;;;;5076087;28;20289;-66
2022/07/29 13:00:29;;;;;;;;;;;22.20;99.90;;;;;;5076137;28;19908;-66
2022/07/29 13:02:56;;;;;;;;;;;22.00;99.90;;;;;;5075905;28;19912;-66
2022/07/29 13:05:21;;;;;;;;;;;21.80;99.90;;;;;;5076010;28;19908;-65
2022/07/29 13:07:47;;;;;;;;;;;21.80;99.90;;;;;;5076266;28;19916;-66
2022/07/29 13:10:15;;;;;;;;;;;21.60;99.90;;;;;;5076311;28;19909;-65
2022/07/29 13:13:00;;;;;;;;;;;21.60;99.90;;;;;;5076292;28;19909;-67
2022/07/29 13:15:26;;;;;;;;;;;21.60;99.90;;;;;;5057882;28;20359;-65
2022/07/29 13:17:51;;;;;;;;;;;21.50;99.90;;;;;;5075944;28;19957;-65
2022/07/29 13:20:17;;;;;;;;;;;21.40;99.90;;;;;;5076183;28;20294;-65
2022/07/29 13:22:46;;;;;;;;;;;21.50;99.90;;;;;;5075969;28;20014;-65
2022/07/29 13:25:12;;;;;;;;;;;21.50;99.90;;;;;;5075750;28;19915;-65
2022/07/29 13:27:38;;;;;;;;;;;21.30;99.90;;;;;;5057765;28;19909;-66
2022/07/29 13:30:05;;;;;;;;;;;21.30;99.90;;;;;;5075901;28;20436;-66
2022/07/29 13:32:31;;;;;;;;;;;21.40;99.90;;;;;;5057798;28;20367;-65
2022/07/29 13:34:57;;;;;;;;;;;21.60;99.90;;;;;;5075563;28;19912;-66
2022/07/29 13:37:22;;;;;;;;;;;21.40;99.90;;;;;;5075768;28;19909;-66
2022/07/29 13:39:48;;;;;;;;;;;21.70;99.90;;;;;;5075545;28;19908;-66
2022/07/29 13:42:14;;;;;;;;;;;21.80;99.90;;;;;;5075217;28;19921;-66
2022/07/29 13:44:39;;;;;;;;;;;21.80;99.90;;;;;;5075611;28;20375;-66
2022/07/29 13:47:05;;;;;;;;;;;21.90;99.90;;;;;;5075348;28;19909;-66
2022/07/29 13:49:31;;;;;;;;;;;21.80;99.90;;;;;;5057524;28;19915;-65
2022/07/29 13:51:56;;;;;;;;;;;21.80;99.90;;;;;;5075437;28;19909;-66
2022/07/29 13:54:22;;;;;;;;;;;21.90;99.90;;;;;;5075483;28;19958;-65
2022/07/29 13:56:47;;;;;;;;;;;21.90;99.90;;;;;;5075330;28;19915;-65
2022/07/29 13:59:13;;;;;;;;;;;22.00;99.90;;;;;;5075100;28;19989;-66
2022/07/29 14:01:41;;;;;;;;;;;22.20;99.90;;;;;;5075248;28;19908;-66
2022/07/29 14:04:08;;;;;;;;;;;22.30;99.90;;;;;;5075315;28;19958;-66
2022/07/29 14:06:33;;;;;;;;;;;22.50;99.90;;;;;;5073923;28;19912;-66
2022/07/29 14:08:59;;;;;;;;;;;22.70;99.90;;;;;;5075147;28;20316;-66
2022/07/29 14:11:24;;;;;;;;;;;22.80;99.90;;;;;;5075099;28;19954;-66
2022/07/29 14:13:50;;;;;;;;;;;23.10;99.90;;;;;;5074809;28;19992;-67
2022/07/29 14:16:15;;;;;;;;;;;23.10;99.90;;;;;;5074777;28;19912;-67
2022/07/29 14:18:41;;;;;;;;;;;23.00;99.90;;;;;;5074671;28;20001;-67
2022/07/29 14:21:06;;;;;;;;;;;22.90;99.90;;;;;;5074875;28;19908;-67
2022/07/29 14:23:32;;;;;;;;;;;23.00;99.90;;;;;;5074552;28;19912;-67